sensor_id;sensor_type;location;lat;lon;timestamp;P1;durP1;ratioP1;P2;durP2;ratioP2
5521;SDS011;2783;48.730;8.006;2023-11-19T00:01:00;0.60;;;0.60;;
5521;SDS011;2783;48.730;8.006;2023-11-19T00:03:26;0.70;;;0.70;;
5521;SDS011;2783;48.730;8.006;2023-11-19T00:05:51;0.65;;;0.65;;
5521;SDS011;2783;48.730;8.006;2023-11-19T00:08:16;0.60;;;0.60;;
5521;SDS011;2783;48.730;8.006;2023-11-19T00:10:43;0.70;;;0.70;;
5521;SDS011;2783;48.730;8.006;2023-11-19T00:13:08;0.70;;;0.70;;
5521;SDS011;2783;48.730;8.006;2023-11-19T00:15:35;0.60;;;0.60;;
5521;SDS011;2783;48.730;8.006;2023-11-19T00:18:00;0.70;;;0.70;;
5521;SDS011;2783;48.730;8.006;2023-11-19T00:20:29;0.70;;;0.70;;
5521;SDS011;2783;48.730;8.006;2023-11-19T00:22:55;0.60;;;0.60;;
5521;SDS011;2783;48.730;8.006;2023-11-19T00:25:21;0.70;;;0.70;;
5521;SDS011;2783;48.730;8.006;2023-11-19T00:27:46;0.60;;;0.60;;
5521;SDS011;2783;48.730;8.006;2023-11-19T00:30:12;0.70;;;0.70;;
5521;SDS011;2783;48.730;8.006;2023-11-19T00:32:39;0.70;;;0.70;;
5521;SDS011;2783;48.730;8.006;2023-11-19T00:35:05;0.60;;;0.60;;
5521;SDS011;2783;48.730;8.006;2023-11-19T00:37:31;0.60;;;0.60;;
5521;SDS011;2783;48.730;8.006;2023-11-19T00:39:56;0.60;;;0.60;;
5521;SDS011;2783;48.730;8.006;2023-11-19T00:42:23;0.65;;;0.65;;
5521;SDS011;2783;48.730;8.006;2023-11-19T00:44:49;0.60;;;0.60;;
5521;SDS011;2783;48.730;8.006;2023-11-19T00:47:15;0.70;;;0.70;;
5521;SDS011;2783;48.730;8.006;2023-11-19T00:49:40;0.60;;;0.60;;
5521;SDS011;2783;48.730;8.006;2023-11-19T00:52:06;0.60;;;0.60;;
5521;SDS011;2783;48.730;8.006;2023-11-19T00:54:31;0.65;;;0.65;;
5521;SDS011;2783;48.730;8.006;2023-11-19T00:56:57;0.60;;;0.60;;
5521;SDS011;2783;48.730;8.006;2023-11-19T00:59:23;0.70;;;0.70;;
5521;SDS011;2783;48.730;8.006;2023-11-19T01:01:48;0.60;;;0.60;;
5521;SDS011;2783;48.730;8.006;2023-11-19T01:04:14;0.50;;;0.50;;
5521;SDS011;2783;48.730;8.006;2023-11-19T01:06:40;0.60;;;0.60;;
5521;SDS011;2783;48.730;8.006;2023-11-19T01:09:07;0.70;;;0.70;;
5521;SDS011;2783;48.730;8.006;2023-11-19T01:11:33;0.68;;;0.68;;
5521;SDS011;2783;48.730;8.006;2023-11-19T01:13:59;0.60;;;0.60;;
5521;SDS011;2783;48.730;8.006;2023-11-19T01:16:25;0.70;;;0.70;;
5521;SDS011;2783;48.730;8.006;2023-11-19T01:18:51;0.60;;;0.60;;
5521;SDS011;2783;48.730;8.006;2023-11-19T01:21:17;0.70;;;0.70;;
5521;SDS011;2783;48.730;8.006;2023-11-19T01:23:43;0.60;;;0.60;;
5521;SDS011;2783;48.730;8.006;2023-11-19T01:26:09;0.60;;;0.60;;
5521;SDS011;2783;48.730;8.006;2023-11-19T01:28:38;0.60;;;0.60;;
5521;SDS011;2783;48.730;8.006;2023-11-19T01:31:11;0.63;;;0.63;;
5521;SDS011;2783;48.730;8.006;2023-11-19T01:33:38;0.70;;;0.70;;
5521;SDS011;2783;48.730;8.006;2023-11-19T01:36:03;0.70;;;0.70;;
5521;SDS011;2783;48.730;8.006;2023-11-19T01:38:29;0.70;;;0.70;;
5521;SDS011;2783;48.730;8.006;2023-11-19T01:40:56;0.70;;;0.70;;
5521;SDS011;2783;48.730;8.006;2023-11-19T01:43:32;0.60;;;0.60;;
5521;SDS011;2783;48.730;8.006;2023-11-19T01:46:02;0.60;;;0.60;;
5521;SDS011;2783;48.730;8.006;2023-11-19T01:48:31;0.60;;;0.60;;
5521;SDS011;2783;48.730;8.006;2023-11-19T01:51:01;0.70;;;0.70;;
5521;SDS011;2783;48.730;8.006;2023-11-19T01:53:29;0.70;;;0.70;;
5521;SDS011;2783;48.730;8.006;2023-11-19T01:55:55;0.60;;;0.60;;
5521;SDS011;2783;48.730;8.006;2023-11-19T01:58:22;0.60;;;0.60;;
5521;SDS011;2783;48.730;8.006;2023-11-19T02:00:48;0.60;;;0.60;;
5521;SDS011;2783;48.730;8.006;2023-11-19T02:03:14;0.60;;;0.60;;
5521;SDS011;2783;48.730;8.006;2023-11-19T02:05:39;0.70;;;0.70;;
5521;SDS011;2783;48.730;8.006;2023-11-19T02:08:05;0.60;;;0.60;;
5521;SDS011;2783;48.730;8.006;2023-11-19T02:10:31;0.60;;;0.60;;
5521;SDS011;2783;48.730;8.006;2023-11-19T02:12:57;0.60;;;0.60;;
5521;SDS011;2783;48.730;8.006;2023-11-19T02:15:23;0.60;;;0.60;;
5521;SDS011;2783;48.730;8.006;2023-11-19T02:17:50;0.60;;;0.60;;
5521;SDS011;2783;48.730;8.006;2023-11-19T02:20:15;0.60;;;0.60;;
5521;SDS011;2783;48.730;8.006;2023-11-19T02:22:41;0.60;;;0.60;;
5521;SDS011;2783;48.730;8.006;2023-11-19T02:25:07;0.50;;;0.50;;
5521;SDS011;2783;48.730;8.006;2023-11-19T02:30:16;0.60;;;0.60;;
5521;SDS011;2783;48.730;8.006;2023-11-19T02:32:42;0.60;;;0.60;;
5521;SDS011;2783;48.730;8.006;2023-11-19T02:35:07;0.55;;;0.55;;
5521;SDS011;2783;48.730;8.006;2023-11-19T02:37:37;0.60;;;0.60;;
5521;SDS011;2783;48.730;8.006;2023-11-19T02:40:04;0.60;;;0.60;;
5521;SDS011;2783;48.730;8.006;2023-11-19T02:42:30;0.60;;;0.60;;
5521;SDS011;2783;48.730;8.006;2023-11-19T02:44:56;0.60;;;0.60;;
5521;SDS011;2783;48.730;8.006;2023-11-19T02:47:21;0.60;;;0.60;;
5521;SDS011;2783;48.730;8.006;2023-11-19T02:49:49;0.60;;;0.60;;
5521;SDS011;2783;48.730;8.006;2023-11-19T02:52:15;0.52;;;0.52;;
5521;SDS011;2783;48.730;8.006;2023-11-19T02:54:40;0.60;;;0.60;;
5521;SDS011;2783;48.730;8.006;2023-11-19T02:57:07;0.60;;;0.60;;
5521;SDS011;2783;48.730;8.006;2023-11-19T02:59:35;0.60;;;0.60;;
5521;SDS011;2783;48.730;8.006;2023-11-19T03:02:06;0.63;;;0.63;;
5521;SDS011;2783;48.730;8.006;2023-11-19T03:04:36;0.60;;;0.60;;
5521;SDS011;2783;48.730;8.006;2023-11-19T03:07:01;0.60;;;0.60;;
5521;SDS011;2783;48.730;8.006;2023-11-19T03:09:27;0.60;;;0.60;;
5521;SDS011;2783;48.730;8.006;2023-11-19T03:11:54;0.50;;;0.50;;
5521;SDS011;2783;48.730;8.006;2023-11-19T03:14:19;0.55;;;0.55;;
5521;SDS011;2783;48.730;8.006;2023-11-19T03:16:45;0.60;;;0.60;;
5521;SDS011;2783;48.730;8.006;2023-11-19T03:19:11;0.60;;;0.60;;
5521;SDS011;2783;48.730;8.006;2023-11-19T03:21:37;0.60;;;0.60;;
5521;SDS011;2783;48.730;8.006;2023-11-19T03:24:02;0.60;;;0.60;;
5521;SDS011;2783;48.730;8.006;2023-11-19T03:26:28;0.60;;;0.60;;
5521;SDS011;2783;48.730;8.006;2023-11-19T03:28:54;0.70;;;0.70;;
5521;SDS011;2783;48.730;8.006;2023-11-19T03:31:21;0.65;;;0.65;;
5521;SDS011;2783;48.730;8.006;2023-11-19T03:33:47;0.60;;;0.60;;
5521;SDS011;2783;48.730;8.006;2023-11-19T03:36:12;0.60;;;0.60;;
5521;SDS011;2783;48.730;8.006;2023-11-19T03:38:38;0.60;;;0.60;;
5521;SDS011;2783;48.730;8.006;2023-11-19T03:41:21;0.60;;;0.60;;
5521;SDS011;2783;48.730;8.006;2023-11-19T03:43:47;0.50;;;0.50;;
5521;SDS011;2783;48.730;8.006;2023-11-19T03:46:19;0.60;;;0.60;;
5521;SDS011;2783;48.730;8.006;2023-11-19T03:48:48;0.60;;;0.60;;
5521;SDS011;2783;48.730;8.006;2023-11-19T03:51:15;0.70;;;0.70;;
5521;SDS011;2783;48.730;8.006;2023-11-19T03:53:43;0.60;;;0.60;;
5521;SDS011;2783;48.730;8.006;2023-11-19T03:56:10;0.60;;;0.60;;
5521;SDS011;2783;48.730;8.006;2023-11-19T03:58:37;0.60;;;0.60;;
5521;SDS011;2783;48.730;8.006;2023-11-19T04:01:03;0.60;;;0.60;;
5521;SDS011;2783;48.730;8.006;2023-11-19T04:03:29;0.60;;;0.60;;
5521;SDS011;2783;48.730;8.006;2023-11-19T04:05:55;0.60;;;0.60;;
5521;SDS011;2783;48.730;8.006;2023-11-19T04:08:21;0.60;;;0.60;;
5521;SDS011;2783;48.730;8.006;2023-11-19T04:10:46;0.60;;;0.60;;
5521;SDS011;2783;48.730;8.006;2023-11-19T04:13:12;0.60;;;0.60;;
5521;SDS011;2783;48.730;8.006;2023-11-19T04:15:38;0.52;;;0.52;;
5521;SDS011;2783;48.730;8.006;2023-11-19T04:18:03;0.60;;;0.60;;
5521;SDS011;2783;48.730;8.006;2023-11-19T04:20:28;0.70;;;0.70;;
5521;SDS011;2783;48.730;8.006;2023-11-19T04:22:54;0.60;;;0.60;;
5521;SDS011;2783;48.730;8.006;2023-11-19T04:25:19;0.55;;;0.55;;
5521;SDS011;2783;48.730;8.006;2023-11-19T04:27:45;0.65;;;0.65;;
5521;SDS011;2783;48.730;8.006;2023-11-19T04:30:11;0.60;;;0.60;;
5521;SDS011;2783;48.730;8.006;2023-11-19T04:32:37;0.50;;;0.50;;
5521;SDS011;2783;48.730;8.006;2023-11-19T04:35:02;0.70;;;0.70;;
5521;SDS011;2783;48.730;8.006;2023-11-19T04:37:28;0.60;;;0.60;;
5521;SDS011;2783;48.730;8.006;2023-11-19T04:39:53;0.60;;;0.60;;
5521;SDS011;2783;48.730;8.006;2023-11-19T04:42:19;0.57;;;0.57;;
5521;SDS011;2783;48.730;8.006;2023-11-19T04:44:47;0.50;;;0.50;;
5521;SDS011;2783;48.730;8.006;2023-11-19T04:47:12;0.60;;;0.60;;
5521;SDS011;2783;48.730;8.006;2023-11-19T04:49:41;0.50;;;0.50;;
5521;SDS011;2783;48.730;8.006;2023-11-19T04:52:10;0.60;;;0.60;;
5521;SDS011;2783;48.730;8.006;2023-11-19T04:54:46;0.60;;;0.60;;
5521;SDS011;2783;48.730;8.006;2023-11-19T04:57:13;0.60;;;0.60;;
5521;SDS011;2783;48.730;8.006;2023-11-19T04:59:38;0.50;;;0.50;;
5521;SDS011;2783;48.730;8.006;2023-11-19T05:02:04;0.60;;;0.60;;
5521;SDS011;2783;48.730;8.006;2023-11-19T05:04:30;0.60;;;0.60;;
5521;SDS011;2783;48.730;8.006;2023-11-19T05:06:56;0.60;;;0.60;;
5521;SDS011;2783;48.730;8.006;2023-11-19T05:09:21;0.50;;;0.50;;
5521;SDS011;2783;48.730;8.006;2023-11-19T05:11:47;0.60;;;0.60;;
5521;SDS011;2783;48.730;8.006;2023-11-19T05:14:13;0.50;;;0.50;;
5521;SDS011;2783;48.730;8.006;2023-11-19T05:16:41;0.60;;;0.60;;
5521;SDS011;2783;48.730;8.006;2023-11-19T05:19:08;0.60;;;0.60;;
5521;SDS011;2783;48.730;8.006;2023-11-19T05:21:34;0.60;;;0.60;;
5521;SDS011;2783;48.730;8.006;2023-11-19T05:24:00;0.60;;;0.60;;
5521;SDS011;2783;48.730;8.006;2023-11-19T05:26:29;0.50;;;0.50;;
5521;SDS011;2783;48.730;8.006;2023-11-19T05:28:54;0.60;;;0.60;;
5521;SDS011;2783;48.730;8.006;2023-11-19T05:31:20;0.60;;;0.60;;
5521;SDS011;2783;48.730;8.006;2023-11-19T05:33:45;0.60;;;0.60;;
5521;SDS011;2783;48.730;8.006;2023-11-19T05:36:11;0.60;;;0.60;;
5521;SDS011;2783;48.730;8.006;2023-11-19T05:38:37;0.57;;;0.57;;
5521;SDS011;2783;48.730;8.006;2023-11-19T05:41:03;0.60;;;0.60;;
5521;SDS011;2783;48.730;8.006;2023-11-19T05:43:29;0.57;;;0.57;;
5521;SDS011;2783;48.730;8.006;2023-11-19T05:45:55;0.50;;;0.50;;
5521;SDS011;2783;48.730;8.006;2023-11-19T05:48:20;0.50;;;0.50;;
5521;SDS011;2783;48.730;8.006;2023-11-19T05:50:46;0.60;;;0.60;;
5521;SDS011;2783;48.730;8.006;2023-11-19T05:53:14;0.60;;;0.60;;
5521;SDS011;2783;48.730;8.006;2023-11-19T05:55:40;0.60;;;0.60;;
5521;SDS011;2783;48.730;8.006;2023-11-19T05:58:11;0.50;;;0.50;;
5521;SDS011;2783;48.730;8.006;2023-11-19T06:00:38;0.60;;;0.60;;
5521;SDS011;2783;48.730;8.006;2023-11-19T06:03:05;0.50;;;0.50;;
5521;SDS011;2783;48.730;8.006;2023-11-19T06:05:31;0.50;;;0.50;;
5521;SDS011;2783;48.730;8.006;2023-11-19T06:07:56;0.60;;;0.60;;
5521;SDS011;2783;48.730;8.006;2023-11-19T06:10:22;0.60;;;0.60;;
5521;SDS011;2783;48.730;8.006;2023-11-19T06:12:53;0.50;;;0.50;;
5521;SDS011;2783;48.730;8.006;2023-11-19T06:15:21;0.60;;;0.60;;
5521;SDS011;2783;48.730;8.006;2023-11-19T06:17:46;0.60;;;0.60;;
5521;SDS011;2783;48.730;8.006;2023-11-19T06:20:12;0.60;;;0.60;;
5521;SDS011;2783;48.730;8.006;2023-11-19T06:22:39;0.55;;;0.55;;
5521;SDS011;2783;48.730;8.006;2023-11-19T06:25:05;0.60;;;0.60;;
5521;SDS011;2783;48.730;8.006;2023-11-19T06:27:32;0.60;;;0.60;;
5521;SDS011;2783;48.730;8.006;2023-11-19T06:29:57;0.60;;;0.60;;
5521;SDS011;2783;48.730;8.006;2023-11-19T06:32:23;0.50;;;0.50;;
5521;SDS011;2783;48.730;8.006;2023-11-19T06:34:49;0.50;;;0.50;;
5521;SDS011;2783;48.730;8.006;2023-11-19T06:37:14;0.60;;;0.60;;
5521;SDS011;2783;48.730;8.006;2023-11-19T06:39:40;0.50;;;0.50;;
5521;SDS011;2783;48.730;8.006;2023-11-19T06:42:05;0.60;;;0.60;;
5521;SDS011;2783;48.730;8.006;2023-11-19T06:44:32;0.60;;;0.60;;
5521;SDS011;2783;48.730;8.006;2023-11-19T06:46:57;0.60;;;0.60;;
5521;SDS011;2783;48.730;8.006;2023-11-19T06:49:23;0.60;;;0.60;;
5521;SDS011;2783;48.730;8.006;2023-11-19T06:51:49;0.50;;;0.50;;
5521;SDS011;2783;48.730;8.006;2023-11-19T06:54:15;0.60;;;0.60;;
5521;SDS011;2783;48.730;8.006;2023-11-19T06:56:41;0.50;;;0.50;;
5521;SDS011;2783;48.730;8.006;2023-11-19T06:59:06;0.50;;;0.50;;
5521;SDS011;2783;48.730;8.006;2023-11-19T07:01:35;0.60;;;0.60;;
5521;SDS011;2783;48.730;8.006;2023-11-19T07:04:01;0.47;;;0.47;;
5521;SDS011;2783;48.730;8.006;2023-11-19T07:06:33;0.50;;;0.50;;
5521;SDS011;2783;48.730;8.006;2023-11-19T07:08:59;0.55;;;0.55;;
5521;SDS011;2783;48.730;8.006;2023-11-19T07:11:27;0.50;;;0.50;;
5521;SDS011;2783;48.730;8.006;2023-11-19T07:13:53;0.50;;;0.50;;
5521;SDS011;2783;48.730;8.006;2023-11-19T07:16:19;0.50;;;0.50;;
5521;SDS011;2783;48.730;8.006;2023-11-19T07:18:46;0.60;;;0.60;;
5521;SDS011;2783;48.730;8.006;2023-11-19T07:21:15;0.57;;;0.57;;
5521;SDS011;2783;48.730;8.006;2023-11-19T07:23:40;0.50;;;0.50;;
5521;SDS011;2783;48.730;8.006;2023-11-19T07:26:06;0.50;;;0.50;;
5521;SDS011;2783;48.730;8.006;2023-11-19T07:28:35;0.60;;;0.60;;
5521;SDS011;2783;48.730;8.006;2023-11-19T07:31:01;0.50;;;0.50;;
5521;SDS011;2783;48.730;8.006;2023-11-19T07:33:27;0.50;;;0.50;;
5521;SDS011;2783;48.730;8.006;2023-11-19T07:35:52;0.40;;;0.40;;
5521;SDS011;2783;48.730;8.006;2023-11-19T07:38:18;0.50;;;0.50;;
5521;SDS011;2783;48.730;8.006;2023-11-19T07:40:43;0.50;;;0.50;;
5521;SDS011;2783;48.730;8.006;2023-11-19T07:43:09;0.50;;;0.50;;
5521;SDS011;2783;48.730;8.006;2023-11-19T07:45:34;0.50;;;0.50;;
5521;SDS011;2783;48.730;8.006;2023-11-19T07:47:59;0.50;;;0.50;;
5521;SDS011;2783;48.730;8.006;2023-11-19T07:50:26;0.50;;;0.50;;
5521;SDS011;2783;48.730;8.006;2023-11-19T07:52:51;0.50;;;0.50;;
5521;SDS011;2783;48.730;8.006;2023-11-19T07:55:17;0.47;;;0.47;;
5521;SDS011;2783;48.730;8.006;2023-11-19T07:57:42;0.60;;;0.60;;
5521;SDS011;2783;48.730;8.006;2023-11-19T08:00:08;0.50;;;0.50;;
5521;SDS011;2783;48.730;8.006;2023-11-19T08:02:37;0.40;;;0.40;;
5521;SDS011;2783;48.730;8.006;2023-11-19T08:05:03;0.50;;;0.50;;
5521;SDS011;2783;48.730;8.006;2023-11-19T08:07:29;0.50;;;0.50;;
5521;SDS011;2783;48.730;8.006;2023-11-19T08:09:54;0.50;;;0.50;;
5521;SDS011;2783;48.730;8.006;2023-11-19T08:12:20;0.60;;;0.60;;
5521;SDS011;2783;48.730;8.006;2023-11-19T08:14:45;0.60;;;0.60;;
5521;SDS011;2783;48.730;8.006;2023-11-19T08:17:10;0.50;;;0.50;;
5521;SDS011;2783;48.730;8.006;2023-11-19T08:19:36;0.50;;;0.50;;
5521;SDS011;2783;48.730;8.006;2023-11-19T08:22:01;0.50;;;0.50;;
5521;SDS011;2783;48.730;8.006;2023-11-19T08:24:27;0.50;;;0.50;;
5521;SDS011;2783;48.730;8.006;2023-11-19T08:26:53;0.50;;;0.50;;
5521;SDS011;2783;48.730;8.006;2023-11-19T08:29:19;0.60;;;0.60;;
5521;SDS011;2783;48.730;8.006;2023-11-19T08:31:44;0.50;;;0.50;;
5521;SDS011;2783;48.730;8.006;2023-11-19T08:34:11;0.50;;;0.50;;
5521;SDS011;2783;48.730;8.006;2023-11-19T08:36:36;0.60;;;0.60;;
5521;SDS011;2783;48.730;8.006;2023-11-19T08:39:02;0.60;;;0.60;;
5521;SDS011;2783;48.730;8.006;2023-11-19T08:41:28;0.55;;;0.55;;
5521;SDS011;2783;48.730;8.006;2023-11-19T08:43:53;0.50;;;0.50;;
5521;SDS011;2783;48.730;8.006;2023-11-19T08:46:18;0.50;;;0.50;;
5521;SDS011;2783;48.730;8.006;2023-11-19T08:48:44;0.50;;;0.50;;
5521;SDS011;2783;48.730;8.006;2023-11-19T08:51:11;0.50;;;0.50;;
5521;SDS011;2783;48.730;8.006;2023-11-19T08:53:36;0.60;;;0.60;;
5521;SDS011;2783;48.730;8.006;2023-11-19T08:56:02;0.50;;;0.50;;
5521;SDS011;2783;48.730;8.006;2023-11-19T08:58:28;0.50;;;0.50;;
5521;SDS011;2783;48.730;8.006;2023-11-19T09:00:54;0.50;;;0.50;;
5521;SDS011;2783;48.730;8.006;2023-11-19T09:03:19;0.50;;;0.50;;
5521;SDS011;2783;48.730;8.006;2023-11-19T09:05:45;0.50;;;0.50;;
5521;SDS011;2783;48.730;8.006;2023-11-19T09:08:11;0.50;;;0.50;;
5521;SDS011;2783;48.730;8.006;2023-11-19T09:10:37;0.50;;;0.50;;
5521;SDS011;2783;48.730;8.006;2023-11-19T09:13:02;0.50;;;0.50;;
5521;SDS011;2783;48.730;8.006;2023-11-19T09:15:28;0.60;;;0.60;;
5521;SDS011;2783;48.730;8.006;2023-11-19T09:17:54;0.50;;;0.50;;
5521;SDS011;2783;48.730;8.006;2023-11-19T09:20:20;0.50;;;0.50;;
5521;SDS011;2783;48.730;8.006;2023-11-19T09:22:45;0.50;;;0.50;;
5521;SDS011;2783;48.730;8.006;2023-11-19T09:25:11;0.50;;;0.50;;
5521;SDS011;2783;48.730;8.006;2023-11-19T09:27:36;0.50;;;0.50;;
5521;SDS011;2783;48.730;8.006;2023-11-19T09:30:02;0.50;;;0.50;;
5521;SDS011;2783;48.730;8.006;2023-11-19T09:32:28;0.50;;;0.50;;
5521;SDS011;2783;48.730;8.006;2023-11-19T09:34:54;0.50;;;0.50;;
5521;SDS011;2783;48.730;8.006;2023-11-19T09:37:19;0.50;;;0.50;;
5521;SDS011;2783;48.730;8.006;2023-11-19T09:39:45;0.45;;;0.45;;
5521;SDS011;2783;48.730;8.006;2023-11-19T09:42:10;0.50;;;0.50;;
5521;SDS011;2783;48.730;8.006;2023-11-19T09:44:37;0.50;;;0.50;;
5521;SDS011;2783;48.730;8.006;2023-11-19T09:47:04;0.50;;;0.50;;
5521;SDS011;2783;48.730;8.006;2023-11-19T09:49:32;0.50;;;0.50;;
5521;SDS011;2783;48.730;8.006;2023-11-19T09:52:00;0.50;;;0.50;;
5521;SDS011;2783;48.730;8.006;2023-11-19T09:54:26;0.50;;;0.50;;
5521;SDS011;2783;48.730;8.006;2023-11-19T09:56:51;0.40;;;0.40;;
5521;SDS011;2783;48.730;8.006;2023-11-19T09:59:17;0.40;;;0.40;;
5521;SDS011;2783;48.730;8.006;2023-11-19T10:01:43;0.40;;;0.40;;
5521;SDS011;2783;48.730;8.006;2023-11-19T10:04:10;0.50;;;0.50;;
5521;SDS011;2783;48.730;8.006;2023-11-19T10:06:41;0.40;;;0.40;;
5521;SDS011;2783;48.730;8.006;2023-11-19T10:09:07;0.40;;;0.40;;
5521;SDS011;2783;48.730;8.006;2023-11-19T10:11:32;0.40;;;0.40;;
5521;SDS011;2783;48.730;8.006;2023-11-19T10:13:58;0.40;;;0.40;;
5521;SDS011;2783;48.730;8.006;2023-11-19T10:16:28;0.40;;;0.40;;
5521;SDS011;2783;48.730;8.006;2023-11-19T10:18:55;0.40;;;0.40;;
5521;SDS011;2783;48.730;8.006;2023-11-19T10:21:21;0.50;;;0.50;;
5521;SDS011;2783;48.730;8.006;2023-11-19T10:23:50;0.43;;;0.43;;
5521;SDS011;2783;48.730;8.006;2023-11-19T10:26:17;0.40;;;0.40;;
5521;SDS011;2783;48.730;8.006;2023-11-19T10:28:45;0.40;;;0.40;;
5521;SDS011;2783;48.730;8.006;2023-11-19T10:31:12;0.40;;;0.40;;
5521;SDS011;2783;48.730;8.006;2023-11-19T10:33:42;0.40;;;0.40;;
5521;SDS011;2783;48.730;8.006;2023-11-19T10:36:10;0.30;;;0.30;;
5521;SDS011;2783;48.730;8.006;2023-11-19T10:38:39;0.30;;;0.30;;
5521;SDS011;2783;48.730;8.006;2023-11-19T10:41:06;0.40;;;0.40;;
5521;SDS011;2783;48.730;8.006;2023-11-19T10:43:32;0.40;;;0.40;;
5521;SDS011;2783;48.730;8.006;2023-11-19T10:46:10;0.40;;;0.40;;
5521;SDS011;2783;48.730;8.006;2023-11-19T10:48:37;0.40;;;0.40;;
5521;SDS011;2783;48.730;8.006;2023-11-19T10:51:06;0.30;;;0.30;;
5521;SDS011;2783;48.730;8.006;2023-11-19T10:53:41;0.30;;;0.30;;
5521;SDS011;2783;48.730;8.006;2023-11-19T10:56:10;0.30;;;0.30;;
5521;SDS011;2783;48.730;8.006;2023-11-19T10:58:36;0.30;;;0.30;;
5521;SDS011;2783;48.730;8.006;2023-11-19T11:01:19;0.35;;;0.35;;
5521;SDS011;2783;48.730;8.006;2023-11-19T11:03:48;0.30;;;0.30;;
5521;SDS011;2783;48.730;8.006;2023-11-19T11:06:16;0.30;;;0.30;;
5521;SDS011;2783;48.730;8.006;2023-11-19T11:08:43;0.30;;;0.30;;
5521;SDS011;2783;48.730;8.006;2023-11-19T11:11:11;0.28;;;0.28;;
5521;SDS011;2783;48.730;8.006;2023-11-19T11:13:41;0.25;;;0.25;;
5521;SDS011;2783;48.730;8.006;2023-11-19T11:16:07;0.20;;;0.20;;
5521;SDS011;2783;48.730;8.006;2023-11-19T11:18:33;0.30;;;0.30;;
5521;SDS011;2783;48.730;8.006;2023-11-19T11:21:03;0.20;;;0.20;;
5521;SDS011;2783;48.730;8.006;2023-11-19T11:23:47;0.20;;;0.20;;
5521;SDS011;2783;48.730;8.006;2023-11-19T11:31:44;0.20;;;0.20;;
5521;SDS011;2783;48.730;8.006;2023-11-19T11:34:35;0.20;;;0.20;;
5521;SDS011;2783;48.730;8.006;2023-11-19T11:40:04;0.30;;;0.30;;
5521;SDS011;2783;48.730;8.006;2023-11-19T11:42:38;0.30;;;0.30;;
5521;SDS011;2783;48.730;8.006;2023-11-19T11:55:26;0.20;;;0.20;;
5521;SDS011;2783;48.730;8.006;2023-11-19T11:57:52;0.30;;;0.30;;
5521;SDS011;2783;48.730;8.006;2023-11-19T12:00:31;0.17;;;0.17;;
5521;SDS011;2783;48.730;8.006;2023-11-19T12:03:02;0.20;;;0.20;;
5521;SDS011;2783;48.730;8.006;2023-11-19T12:05:30;0.20;;;0.20;;
5521;SDS011;2783;48.730;8.006;2023-11-19T12:08:04;0.20;;;0.20;;
5521;SDS011;2783;48.730;8.006;2023-11-19T12:10:45;0.20;;;0.20;;
5521;SDS011;2783;48.730;8.006;2023-11-19T12:13:14;0.20;;;0.20;;
5521;SDS011;2783;48.730;8.006;2023-11-19T12:18:31;0.20;;;0.20;;
5521;SDS011;2783;48.730;8.006;2023-11-19T12:20:57;0.20;;;0.20;;
5521;SDS011;2783;48.730;8.006;2023-11-19T12:23:30;0.20;;;0.20;;
5521;SDS011;2783;48.730;8.006;2023-11-19T12:25:58;0.20;;;0.20;;
5521;SDS011;2783;48.730;8.006;2023-11-19T12:28:24;0.20;;;0.20;;
5521;SDS011;2783;48.730;8.006;2023-11-19T12:30:52;0.20;;;0.20;;
5521;SDS011;2783;48.730;8.006;2023-11-19T12:33:18;0.20;;;0.20;;
5521;SDS011;2783;48.730;8.006;2023-11-19T12:35:45;0.20;;;0.20;;
5521;SDS011;2783;48.730;8.006;2023-11-19T12:38:20;0.30;;;0.30;;
5521;SDS011;2783;48.730;8.006;2023-11-19T12:41:03;0.20;;;0.20;;
5521;SDS011;2783;48.730;8.006;2023-11-19T12:43:29;0.10;;;0.10;;
5521;SDS011;2783;48.730;8.006;2023-11-19T12:45:54;0.20;;;0.20;;
5521;SDS011;2783;48.730;8.006;2023-11-19T12:48:20;0.20;;;0.20;;
5521;SDS011;2783;48.730;8.006;2023-11-19T12:53:26;0.20;;;0.20;;
5521;SDS011;2783;48.730;8.006;2023-11-19T12:55:53;0.10;;;0.10;;
5521;SDS011;2783;48.730;8.006;2023-11-19T12:58:33;0.20;;;0.20;;
5521;SDS011;2783;48.730;8.006;2023-11-19T13:01:01;0.30;;;0.30;;
5521;SDS011;2783;48.730;8.006;2023-11-19T13:03:34;0.30;;;0.30;;
5521;SDS011;2783;48.730;8.006;2023-11-19T13:06:08;0.30;;;0.30;;
5521;SDS011;2783;48.730;8.006;2023-11-19T13:08:45;0.30;;;0.30;;
5521;SDS011;2783;48.730;8.006;2023-11-19T13:11:14;0.20;;;0.20;;
5521;SDS011;2783;48.730;8.006;2023-11-19T13:14:00;0.20;;;0.20;;
5521;SDS011;2783;48.730;8.006;2023-11-19T13:16:28;0.20;;;0.20;;
5521;SDS011;2783;48.730;8.006;2023-11-19T13:18:53;0.30;;;0.30;;
5521;SDS011;2783;48.730;8.006;2023-11-19T13:21:19;0.30;;;0.30;;
5521;SDS011;2783;48.730;8.006;2023-11-19T13:23:45;0.30;;;0.30;;
5521;SDS011;2783;48.730;8.006;2023-11-19T13:26:10;0.30;;;0.30;;
5521;SDS011;2783;48.730;8.006;2023-11-19T13:28:36;0.30;;;0.30;;
5521;SDS011;2783;48.730;8.006;2023-11-19T13:31:02;0.30;;;0.30;;
5521;SDS011;2783;48.730;8.006;2023-11-19T13:33:28;0.30;;;0.30;;
5521;SDS011;2783;48.730;8.006;2023-11-19T13:35:54;0.30;;;0.30;;
5521;SDS011;2783;48.730;8.006;2023-11-19T13:38:20;0.30;;;0.30;;
5521;SDS011;2783;48.730;8.006;2023-11-19T13:40:45;0.30;;;0.30;;
5521;SDS011;2783;48.730;8.006;2023-11-19T13:43:10;0.28;;;0.28;;
5521;SDS011;2783;48.730;8.006;2023-11-19T13:45:36;0.30;;;0.30;;
5521;SDS011;2783;48.730;8.006;2023-11-19T13:48:02;0.30;;;0.30;;
5521;SDS011;2783;48.730;8.006;2023-11-19T13:50:28;0.30;;;0.30;;
5521;SDS011;2783;48.730;8.006;2023-11-19T13:52:54;0.30;;;0.30;;
5521;SDS011;2783;48.730;8.006;2023-11-19T13:55:19;0.30;;;0.30;;
5521;SDS011;2783;48.730;8.006;2023-11-19T13:57:45;0.30;;;0.30;;
5521;SDS011;2783;48.730;8.006;2023-11-19T14:00:11;0.30;;;0.30;;
5521;SDS011;2783;48.730;8.006;2023-11-19T14:02:48;0.25;;;0.25;;
5521;SDS011;2783;48.730;8.006;2023-11-19T14:05:13;0.32;;;0.32;;
5521;SDS011;2783;48.730;8.006;2023-11-19T14:07:42;0.30;;;0.30;;
5521;SDS011;2783;48.730;8.006;2023-11-19T14:10:09;0.28;;;0.28;;
5521;SDS011;2783;48.730;8.006;2023-11-19T14:12:36;0.30;;;0.30;;
5521;SDS011;2783;48.730;8.006;2023-11-19T14:15:05;0.30;;;0.30;;
5521;SDS011;2783;48.730;8.006;2023-11-19T14:17:31;0.30;;;0.30;;
5521;SDS011;2783;48.730;8.006;2023-11-19T14:19:57;0.35;;;0.35;;
5521;SDS011;2783;48.730;8.006;2023-11-19T14:22:22;0.30;;;0.30;;
5521;SDS011;2783;48.730;8.006;2023-11-19T14:24:48;0.30;;;0.30;;
5521;SDS011;2783;48.730;8.006;2023-11-19T14:27:13;0.30;;;0.30;;
5521;SDS011;2783;48.730;8.006;2023-11-19T14:29:39;0.20;;;0.20;;
5521;SDS011;2783;48.730;8.006;2023-11-19T14:32:05;0.30;;;0.30;;
5521;SDS011;2783;48.730;8.006;2023-11-19T14:34:31;0.30;;;0.30;;
5521;SDS011;2783;48.730;8.006;2023-11-19T14:37:00;0.30;;;0.30;;
5521;SDS011;2783;48.730;8.006;2023-11-19T14:39:25;0.30;;;0.30;;
5521;SDS011;2783;48.730;8.006;2023-11-19T14:41:51;0.30;;;0.30;;
5521;SDS011;2783;48.730;8.006;2023-11-19T14:44:18;0.30;;;0.30;;
5521;SDS011;2783;48.730;8.006;2023-11-19T14:46:45;0.30;;;0.30;;
5521;SDS011;2783;48.730;8.006;2023-11-19T14:49:10;0.20;;;0.20;;
5521;SDS011;2783;48.730;8.006;2023-11-19T14:51:39;0.30;;;0.30;;
5521;SDS011;2783;48.730;8.006;2023-11-19T14:54:04;0.30;;;0.30;;
5521;SDS011;2783;48.730;8.006;2023-11-19T14:56:30;0.30;;;0.30;;
5521;SDS011;2783;48.730;8.006;2023-11-19T14:58:56;0.30;;;0.30;;
5521;SDS011;2783;48.730;8.006;2023-11-19T15:01:21;0.40;;;0.40;;
5521;SDS011;2783;48.730;8.006;2023-11-19T15:03:46;0.30;;;0.30;;
5521;SDS011;2783;48.730;8.006;2023-11-19T15:06:12;0.30;;;0.30;;
5521;SDS011;2783;48.730;8.006;2023-11-19T15:08:37;0.40;;;0.40;;
5521;SDS011;2783;48.730;8.006;2023-11-19T15:11:03;0.38;;;0.38;;
5521;SDS011;2783;48.730;8.006;2023-11-19T15:13:30;0.40;;;0.40;;
5521;SDS011;2783;48.730;8.006;2023-11-19T15:15:56;0.30;;;0.30;;
5521;SDS011;2783;48.730;8.006;2023-11-19T15:18:21;0.30;;;0.30;;
5521;SDS011;2783;48.730;8.006;2023-11-19T15:20:48;0.40;;;0.40;;
5521;SDS011;2783;48.730;8.006;2023-11-19T15:23:13;0.40;;;0.40;;
5521;SDS011;2783;48.730;8.006;2023-11-19T15:25:40;0.30;;;0.30;;
5521;SDS011;2783;48.730;8.006;2023-11-19T15:28:06;0.30;;;0.30;;
5521;SDS011;2783;48.730;8.006;2023-11-19T15:30:31;0.30;;;0.30;;
5521;SDS011;2783;48.730;8.006;2023-11-19T15:32:57;0.40;;;0.40;;
5521;SDS011;2783;48.730;8.006;2023-11-19T15:35:22;0.30;;;0.30;;
5521;SDS011;2783;48.730;8.006;2023-11-19T15:37:47;0.30;;;0.30;;
5521;SDS011;2783;48.730;8.006;2023-11-19T15:40:13;0.40;;;0.40;;